Time;durP1;ratioP1;P1;durP2;ratioP2;P2;SDS_P1;SDS_P2;PMS_P1;PMS_P2;Temp;Humidity;BMP_temperature;BMP_pressure;BME280_temperature;BME280_humidity;BME280_pressure;Samples;Min_cycle;Max_cycle;Signal;HPM_P1;HPM_P2
2022/07/20 00:00:25;;;;;;;;;;;;;;;-143.90;40.22;54630.75;3048125;19;19914;-63
2022/07/20 00:01:26;;;;;;;;;;;;;;;-143.90;40.22;54626.78;3045477;19;19918;-64
2022/07/20 00:02:27;;;;;;;;;;;;;;;-143.90;40.19;54642.66;3050625;19;19919;-63
2022/07/20 00:03:28;;;;;;;;;;;;;;;-143.90;40.38;54702.22;3051051;19;19965;-63
2022/07/20 00:04:29;;;;;;;;;;;;;;;-143.90;40.33;54652.56;3050052;19;19955;-64
2022/07/20 00:05:30;;;;;;;;;;;;;;;-143.90;40.49;54658.53;3051980;19;19938;-63
2022/07/20 00:06:31;;;;;;;;;;;;;;;-143.90;40.37;54670.44;3047353;19;20018;-64
2022/07/20 00:07:31;;;;;;;;;;;;;;;-143.90;40.47;54614.84;3046546;19;19919;-63
2022/07/20 00:11:20;;;;;;;;;;;;;;;-143.90;40.62;54670.44;3047174;19;19922;-63
2022/07/20 00:12:21;;;;;;;;;;;;;;;-143.90;40.63;54668.47;3051112;19;19939;-64
2022/07/20 00:13:22;;;;;;;;;;;;;;;-143.90;40.72;54662.50;3048744;19;19926;-64
2022/07/20 00:14:23;;;;;;;;;;;;;;;-143.90;40.84;54646.63;3049183;19;19953;-63
2022/07/20 00:15:23;;;;;;;;;;;;;;;-143.90;40.78;54678.38;3051694;19;19926;-63
2022/07/20 00:16:26;;;;;;;;;;;;;;;-143.90;40.75;54630.75;3049419;19;19918;-64
2022/07/20 00:17:26;;;;;;;;;;;;;;;-143.90;41.00;54642.66;3049311;19;19930;-64
2022/07/20 00:18:27;;;;;;;;;;;;;;;-143.90;41.15;54642.66;3050172;19;19918;-64
2022/07/20 00:19:29;;;;;;;;;;;;;;;-143.90;41.15;54680.38;3048532;19;19937;-64
2022/07/20 00:20:30;;;;;;;;;;;;;;;-143.90;41.39;54622.78;3049361;19;19918;-64
2022/07/20 00:21:30;;;;;;;;;;;;;;;-143.90;41.14;54698.25;3048718;19;19926;-64
2022/07/20 00:22:31;;;;;;;;;;;;;;;-143.90;41.17;54642.66;3048421;19;19914;-64
2022/07/20 00:23:32;;;;;;;;;;;;;;;-143.90;41.40;54650.59;3047252;19;19918;-64
2022/07/20 00:24:33;;;;;;;;;;;;;;;-143.90;41.60;54670.44;3047982;19;19937;-64
2022/07/20 00:25:34;;;;;;;;;;;;;;;-143.90;41.43;54654.56;3049855;19;19922;-64
2022/07/20 00:26:36;;;;;;;;;;;;;;;-143.90;41.62;54670.44;3050043;19;20299;-64
2022/07/20 00:27:37;;;;;;;;;;;;;;;-143.90;41.77;54658.53;3049434;19;20356;-64
2022/07/20 00:28:37;;;;;;;;;;;;;;;-143.90;41.81;54684.34;3051065;19;19919;-64
2022/07/20 00:29:38;;;;;;;;;;;;;;;-143.90;42.21;54646.63;3048920;19;19923;-65
2022/07/20 00:30:42;;;;;;;;;;;;;;;-143.90;41.69;54678.38;3049082;19;20037;-64
2022/07/20 00:31:42;;;;;;;;;;;;;;;-143.90;41.83;54658.53;3049693;19;19937;-64
2022/07/20 00:32:43;;;;;;;;;;;;;;;-143.90;42.13;54650.59;3047536;19;20347;-65
2022/07/20 00:33:46;;;;;;;;;;;;;;;-143.90;42.16;54692.28;3047813;19;19942;-64
2022/07/20 00:34:47;;;;;;;;;;;;;;;-143.90;42.01;54662.50;3051537;19;19939;-64
2022/07/20 00:35:48;;;;;;;;;;;;;;;-143.90;42.21;54678.38;3044679;19;19946;-64
2022/07/20 00:36:48;;;;;;;;;;;;;;;-143.90;42.07;54658.53;3049716;19;19974;-64
2022/07/20 00:37:49;;;;;;;;;;;;;;;-143.90;42.05;54662.50;3047690;19;20856;-65
2022/07/20 00:38:50;;;;;;;;;;;;;;;-143.90;42.18;54678.38;3047084;19;19960;-64
2022/07/20 00:39:51;;;;;;;;;;;;;;;-143.90;42.23;54646.63;3052302;19;19923;-64
2022/07/20 00:40:52;;;;;;;;;;;;;;;-143.90;42.46;54660.53;3047125;19;19981;-64
2022/07/20 00:41:53;;;;;;;;;;;;;;;-143.90;42.64;54700.22;3050906;19;20265;-64
2022/07/20 00:42:53;;;;;;;;;;;;;;;-143.90;42.73;54664.50;3050034;19;19922;-64
2022/07/20 00:44:05;;;;;;;;;;;;;;;-143.90;42.84;54680.38;3049963;19;19915;-64
2022/07/20 00:45:09;;;;;;;;;;;;;;;-143.90;43.01;54698.25;3049333;19;20387;-64
2022/07/20 00:46:10;;;;;;;;;;;;;;;-143.90;43.02;54670.44;3051413;19;20368;-64
2022/07/20 00:47:11;;;;;;;;;;;;;;;-143.90;43.22;54672.44;3045932;19;19926;-64
2022/07/20 00:48:12;;;;;;;;;;;;;;;-143.90;43.35;54662.50;3051145;19;19926;-65
2022/07/20 00:49:13;;;;;;;;;;;;;;;-143.90;43.63;54690.28;3048053;19;19919;-64
2022/07/20 00:50:14;;;;;;;;;;;;;;;-143.90;43.31;54642.66;3048394;19;19923;-64
2022/07/20 00:51:15;;;;;;;;;;;;;;;-143.90;43.27;54674.41;3049360;19;19937;-64
2022/07/20 00:52:16;;;;;;;;;;;;;;;-143.90;43.47;54670.44;3046052;19;19931;-64
2022/07/20 00:53:17;;;;;;;;;;;;;;;-143.90;43.50;54682.34;3045866;19;19915;-64
2022/07/20 00:54:17;;;;;;;;;;;;;;;-143.90;43.93;54674.41;3048153;19;19929;-64
2022/07/20 00:55:18;;;;;;;;;;;;;;;-143.90;43.50;54680.38;3044277;19;19921;-64
2022/07/20 00:56:19;;;;;;;;;;;;;;;-143.90;43.41;54670.44;3049949;19;20339;-64
2022/07/20 00:57:20;;;;;;;;;;;;;;;-143.90;43.44;54696.25;3048686;19;19939;-64
2022/07/20 00:58:21;;;;;;;;;;;;;;;-143.90;43.73;54658.53;3048975;19;20539;-64
2022/07/20 00:59:22;;;;;;;;;;;;;;;-143.90;43.53;54674.41;3050724;19;19929;-64
2022/07/20 01:00:23;;;;;;;;;;;;;;;-143.90;43.56;54658.53;3047427;19;19923;-64
2022/07/20 01:01:24;;;;;;;;;;;;;;;-143.90;43.53;54658.53;3049985;19;19914;-64
2022/07/20 01:02:25;;;;;;;;;;;;;;;-143.90;43.75;54698.25;3050690;19;19926;-64
2022/07/20 01:03:25;;;;;;;;;;;;;;;-143.90;43.56;54674.41;3042487;19;19922;-64
2022/07/20 01:04:26;;;;;;;;;;;;;;;-143.90;43.59;54698.25;3047148;19;19919;-64
2022/07/20 01:05:27;;;;;;;;;;;;;;;-143.90;43.68;54694.28;3050196;19;20272;-64
2022/07/20 01:06:28;;;;;;;;;;;;;;;-143.90;43.69;54672.44;3047340;19;19918;-64
2022/07/20 01:07:29;;;;;;;;;;;;;;;-143.90;43.48;54686.31;3051063;19;20035;-64
2022/07/20 01:08:30;;;;;;;;;;;;;;;-143.90;43.80;54674.41;3047252;19;19957;-64
2022/07/20 01:09:31;;;;;;;;;;;;;;;-143.90;43.83;54698.25;3045709;19;19925;-64
2022/07/20 01:10:31;;;;;;;;;;;;;;;-143.90;44.14;54670.44;3048576;19;21374;-64
2022/07/20 01:11:35;;;;;;;;;;;;;;;-143.90;44.16;54700.22;3047354;19;20002;-64
2022/07/20 01:12:37;;;;;;;;;;;;;;;-143.90;44.18;54694.28;3049725;19;19926;-64
2022/07/20 01:13:38;;;;;;;;;;;;;;;-143.90;44.23;54686.31;3046637;19;19927;-64
2022/07/20 01:14:39;;;;;;;;;;;;;;;-143.90;44.34;54674.41;3049937;19;19947;-64
2022/07/20 01:15:40;;;;;;;;;;;;;;;-143.90;44.53;54662.50;3049014;19;20362;-64
2022/07/20 01:16:40;;;;;;;;;;;;;;;-143.90;44.63;54670.44;3049881;19;19934;-64
2022/07/20 01:17:42;;;;;;;;;;;;;;;-143.90;44.87;54670.44;3048966;19;19918;-64
2022/07/20 01:18:42;;;;;;;;;;;;;;;-143.90;44.66;54666.47;3050467;19;19919;-64
2022/07/20 01:19:43;;;;;;;;;;;;;;;-143.90;44.68;54690.28;3048608;19;19922;-64
2022/07/20 01:20:46;;;;;;;;;;;;;;;-143.90;44.77;54710.16;3047490;19;19922;-64
2022/07/20 01:21:46;;;;;;;;;;;;;;;-143.90;45.15;54662.50;3046806;19;19934;-64
2022/07/20 01:22:47;;;;;;;;;;;;;;;-143.90;45.21;54690.28;3043227;19;19922;-64
2022/07/20 01:23:48;;;;;;;;;;;;;;;-143.90;45.12;54674.41;3049541;19;19926;-64
2022/07/20 01:24:49;;;;;;;;;;;;;;;-143.90;45.15;54676.41;3048134;19;19933;-64
2022/07/20 01:25:50;;;;;;;;;;;;;;;-143.90;45.63;54708.16;3047064;19;19926;-64
2022/07/20 01:26:50;;;;;;;;;;;;;;;-143.90;45.77;54664.50;3048762;19;19930;-64
2022/07/20 01:27:54;;;;;;;;;;;;;;;-143.90;45.75;54692.28;3048381;19;19914;-64
2022/07/20 01:28:55;;;;;;;;;;;;;;;-143.90;45.68;54662.50;3050324;19;19923;-64
2022/07/20 01:29:56;;;;;;;;;;;;;;;-143.90;45.52;54726.03;3038845;19;20362;-64
2022/07/20 01:30:57;;;;;;;;;;;;;;;-143.90;45.95;54680.38;3045327;19;19941;-64
2022/07/20 01:31:58;;;;;;;;;;;;;;;-143.90;46.07;54666.47;3047288;19;19933;-64
2022/07/20 01:32:59;;;;;;;;;;;;;;;-143.90;46.11;54656.53;3048173;19;19911;-64
2022/07/20 01:34:00;;;;;;;;;;;;;;;-143.90;45.64;54700.22;3048674;19;19918;-64
2022/07/20 01:35:00;;;;;;;;;;;;;;;-143.90;45.76;54666.47;3047765;19;19945;-64
2022/07/20 01:36:02;;;;;;;;;;;;;;;-143.90;45.52;54706.19;3050303;19;19919;-64
2022/07/20 01:37:02;;;;;;;;;;;;;;;-143.90;45.70;54694.28;3048059;19;19926;-64
2022/07/20 01:38:04;;;;;;;;;;;;;;;-143.90;45.76;54688.31;3048734;19;19926;-64
2022/07/20 01:39:05;;;;;;;;;;;;;;;-143.90;45.70;54690.28;3048305;19;19946;-64
2022/07/20 01:40:06;;;;;;;;;;;;;;;-143.90;45.91;54728.03;3050741;19;19926;-63
2022/07/20 01:41:06;;;;;;;;;;;;;;;-143.90;45.83;54694.28;3049847;19;19927;-64
2022/07/20 01:42:07;;;;;;;;;;;;;;;-143.90;46.20;54654.56;3050927;19;19915;-64
2022/07/20 01:43:08;;;;;;;;;;;;;;;-143.90;46.27;54686.31;3046914;19;20519;-64
2022/07/20 01:44:09;;;;;;;;;;;;;;;-143.90;46.37;54714.13;3047178;19;19972;-64
2022/07/20 01:45:10;;;;;;;;;;;;;;;-143.90;46.32;54710.16;3051171;19;19926;-64
2022/07/20 01:46:11;;;;;;;;;;;;;;;-143.90;46.48;54682.34;3048258;19;19926;-64
2022/07/20 01:47:12;;;;;;;;;;;;;;;-143.90;46.59;54708.16;3049023;19;19915;-64
2022/07/20 01:48:13;;;;;;;;;;;;;;;-143.90;46.35;54670.44;3049352;19;19919;-63
2022/07/20 01:49:13;;;;;;;;;;;;;;;-143.90;46.62;54686.31;3048638;19;19961;-64
2022/07/20 01:50:14;;;;;;;;;;;;;;;-143.90;46.28;54678.38;3046678;19;19932;-64
2022/07/20 01:51:15;;;;;;;;;;;;;;;-143.90;46.45;54698.25;3048570;19;20756;-64
2022/07/20 01:52:16;;;;;;;;;;;;;;;-143.90;46.53;54640.66;3047427;19;19926;-64
2022/07/20 01:53:17;;;;;;;;;;;;;;;-143.90;46.66;54682.34;3048160;19;19923;-64
2022/07/20 01:54:18;;;;;;;;;;;;;;;-143.90;46.33;54670.44;3047037;19;20326;-64
2022/07/20 01:55:18;;;;;;;;;;;;;;;-143.90;46.97;54670.44;3048196;19;19927;-64
2022/07/20 01:56:19;;;;;;;;;;;;;;;-143.90;46.94;54686.31;3042165;19;19915;-64
2022/07/20 01:57:20;;;;;;;;;;;;;;;-143.90;46.94;54726.03;3049243;19;19994;-64
2022/07/20 01:58:21;;;;;;;;;;;;;;;-143.90;47.02;54706.19;3048970;19;19938;-64
2022/07/20 01:59:22;;;;;;;;;;;;;;;-143.90;47.17;54690.28;3046349;19;19915;-64
2022/07/20 02:00:23;;;;;;;;;;;;;;;-143.90;47.29;54722.06;3050622;19;19939;-64
2022/07/20 02:01:24;;;;;;;;;;;;;;;-143.90;47.17;54678.38;3045633;19;19922;-64
2022/07/20 02:02:24;;;;;;;;;;;;;;;-143.90;47.21;54690.28;3046224;19;20489;-65
2022/07/20 02:03:25;;;;;;;;;;;;;;;-143.90;47.50;54732.00;3042866;19;19916;-63
2022/07/20 02:04:26;;;;;;;;;;;;;;;-143.90;47.35;54694.28;3048166;19;19990;-65
2022/07/20 02:05:27;;;;;;;;;;;;;;;-143.90;47.72;54666.47;3049209;19;20384;-64
2022/07/20 02:06:28;;;;;;;;;;;;;;;-143.90;47.69;54714.13;3046952;19;19954;-64
2022/07/20 02:07:28;;;;;;;;;;;;;;;-143.90;48.04;54710.16;3050235;19;19911;-64
2022/07/20 02:08:29;;;;;;;;;;;;;;;-143.90;48.06;54696.25;3048326;19;19923;-64
2022/07/20 02:09:30;;;;;;;;;;;;;;;-143.90;48.12;54686.31;3048787;19;19922;-64
2022/07/20 02:10:31;;;;;;;;;;;;;;;-143.90;48.16;54718.09;3044673;19;19926;-64
2022/07/20 02:11:32;;;;;;;;;;;;;;;-143.90;48.41;54718.09;3046813;19;19910;-64
2022/07/20 02:12:33;;;;;;;;;;;;;;;-143.90;48.60;54680.38;3046032;19;19927;-64
2022/07/20 02:13:35;;;;;;;;;;;;;;;-143.90;48.86;54654.56;3047033;19;19914;-64
2022/07/20 02:14:36;;;;;;;;;;;;;;;-143.90;48.88;54694.28;3049693;19;19937;-64
2022/07/20 02:16:56;;;;;;;;;;;;;;;-143.90;48.98;54686.31;3050015;19;19923;-64
2022/07/20 02:17:57;;;;;;;;;;;;;;;-143.90;49.14;54698.25;3052752;19;19926;-64
2022/07/20 02:19:00;;;;;;;;;;;;;;;-143.90;49.43;54706.19;3046821;19;19914;-64
2022/07/20 02:20:00;;;;;;;;;;;;;;;-143.90;49.60;54722.06;3051182;19;20500;-64
2022/07/20 02:21:01;;;;;;;;;;;;;;;-143.90;49.77;54706.19;3051988;19;20632;-64
2022/07/20 02:22:02;;;;;;;;;;;;;;;-143.90;49.90;54698.25;3050461;19;19915;-64
2022/07/20 02:23:03;;;;;;;;;;;;;;;-143.90;49.77;54702.22;3048141;19;19923;-64
2022/07/20 02:24:04;;;;;;;;;;;;;;;-143.90;49.65;54710.16;3051346;19;19918;-64
2022/07/20 02:25:06;;;;;;;;;;;;;;;-143.90;49.43;54692.28;3049156;19;19926;-64
2022/07/20 02:26:07;;;;;;;;;;;;;;;-143.90;49.91;54690.28;3052097;19;20407;-64
2022/07/20 02:27:07;;;;;;;;;;;;;;;-143.90;49.97;54724.06;3048320;19;19933;-63
2022/07/20 02:28:08;;;;;;;;;;;;;;;-143.90;49.82;54706.19;3050882;19;19949;-64
2022/07/20 02:29:09;;;;;;;;;;;;;;;-143.90;50.15;54700.22;3050623;19;19937;-64
2022/07/20 02:30:10;;;;;;;;;;;;;;;-143.90;50.06;54722.06;3047928;19;19935;-64
2022/07/20 02:31:11;;;;;;;;;;;;;;;-143.90;50.41;54698.25;3051092;19;19925;-64
2022/07/20 02:32:12;;;;;;;;;;;;;;;-143.90;50.26;54672.44;3047441;19;19929;-64
2022/07/20 02:33:12;;;;;;;;;;;;;;;-143.90;50.20;54702.22;3050587;19;20683;-64
2022/07/20 02:34:13;;;;;;;;;;;;;;;-143.90;50.24;54726.03;3047877;19;19948;-64
2022/07/20 02:35:14;;;;;;;;;;;;;;;-143.90;50.17;54722.06;3049240;19;19919;-63
2022/07/20 02:36:15;;;;;;;;;;;;;;;-143.90;50.53;54670.44;3050834;19;19983;-64
2022/07/20 02:37:16;;;;;;;;;;;;;;;-143.90;50.16;54710.16;3049864;19;19925;-64
2022/07/20 02:38:17;;;;;;;;;;;;;;;-143.90;50.25;54706.19;3052497;19;19918;-64
2022/07/20 02:39:18;;;;;;;;;;;;;;;-143.90;50.25;54698.25;3049349;19;19924;-64
2022/07/20 02:40:19;;;;;;;;;;;;;;;-143.90;50.54;54722.06;3050340;19;20742;-64
2022/07/20 02:41:19;;;;;;;;;;;;;;;-143.90;50.71;54692.28;3051652;19;19923;-64
2022/07/20 02:42:20;;;;;;;;;;;;;;;-143.90;50.52;54712.13;3050330;19;19915;-64
2022/07/20 02:43:21;;;;;;;;;;;;;;;-143.90;50.52;54678.38;3049979;19;19926;-64
2022/07/20 02:44:22;;;;;;;;;;;;;;;-143.90;50.75;54668.47;3050796;19;20025;-64
2022/07/20 02:45:23;;;;;;;;;;;;;;;-143.90;50.82;54730.00;3049667;19;19947;-64
2022/07/20 02:46:24;;;;;;;;;;;;;;;-143.90;50.72;54714.13;3051959;19;20244;-64
2022/07/20 02:47:24;;;;;;;;;;;;;;;-143.90;51.46;54730.00;3050361;19;19922;-63
2022/07/20 02:48:25;;;;;;;;;;;;;;;-143.90;50.92;54714.13;3049402;19;19919;-64
2022/07/20 02:49:26;;;;;;;;;;;;;;;-143.90;50.70;54714.13;3050931;19;19949;-64
2022/07/20 02:50:27;;;;;;;;;;;;;;;-143.90;51.36;54708.16;3050079;19;20307;-63
2022/07/20 02:51:28;;;;;;;;;;;;;;;-143.90;50.91;54724.06;3051259;19;19950;-64
2022/07/20 02:52:29;;;;;;;;;;;;;;;-143.90;51.03;54696.25;3049308;19;19922;-64
2022/07/20 02:53:29;;;;;;;;;;;;;;;-143.90;51.45;54706.19;3048727;19;20679;-63
2022/07/20 02:54:30;;;;;;;;;;;;;;;-143.90;51.64;54690.28;3050160;19;19926;-63
2022/07/20 02:55:31;;;;;;;;;;;;;;;-143.90;51.43;54682.34;3046667;19;19923;-64
2022/07/20 02:56:32;;;;;;;;;;;;;;;-143.90;51.73;54678.38;3051009;19;19986;-64
2022/07/20 02:57:33;;;;;;;;;;;;;;;-143.90;51.70;54676.41;3049262;19;19919;-64
2022/07/20 02:58:34;;;;;;;;;;;;;;;-143.90;51.81;54722.06;3047822;19;19919;-64
2022/07/20 02:59:35;;;;;;;;;;;;;;;-143.90;52.13;54688.31;3048180;19;19930;-64
2022/07/20 03:00:36;;;;;;;;;;;;;;;-143.90;52.30;54692.28;3049595;19;19923;-63
2022/07/20 03:01:37;;;;;;;;;;;;;;;-143.90;52.47;54708.16;3047420;19;19933;-64
2022/07/20 03:02:38;;;;;;;;;;;;;;;-143.90;52.42;54700.22;3049974;19;20007;-64
2022/07/20 03:03:39;;;;;;;;;;;;;;;-143.90;52.61;54726.03;3045582;19;19938;-64
2022/07/20 03:04:40;;;;;;;;;;;;;;;-143.90;52.86;54710.16;3050809;19;19965;-64
2022/07/20 03:05:40;;;;;;;;;;;;;;;-143.90;53.23;54706.19;3049427;19;19919;-64
2022/07/20 03:06:41;;;;;;;;;;;;;;;-143.90;53.21;54696.25;3047289;19;19923;-64
2022/07/20 03:07:42;;;;;;;;;;;;;;;-143.90;53.84;54702.22;3049617;19;20467;-64
2022/07/20 03:08:43;;;;;;;;;;;;;;;-143.90;54.21;54686.31;3050321;19;20341;-64
2022/07/20 03:09:44;;;;;;;;;;;;;;;-143.90;54.09;54732.00;3049285;19;19922;-64
2022/07/20 03:10:45;;;;;;;;;;;;;;;-143.90;54.49;54706.19;3050199;19;20050;-64
2022/07/20 03:11:46;;;;;;;;;;;;;;;-143.90;54.53;54722.06;3049168;19;19953;-64
2022/07/20 03:12:46;;;;;;;;;;;;;;;-143.90;54.88;54696.25;3047932;19;19927;-64
2022/07/20 03:13:47;;;;;;;;;;;;;;;-143.90;54.83;54722.06;3051690;19;20227;-63
2022/07/20 03:14:48;;;;;;;;;;;;;;;-143.90;54.71;54730.00;3048931;19;19923;-64
2022/07/20 03:15:49;;;;;;;;;;;;;;;-143.90;54.11;54690.28;3049964;19;19922;-64
2022/07/20 03:16:51;;;;;;;;;;;;;;;-143.90;54.08;54710.16;3052104;19;20268;-63
2022/07/20 03:17:53;;;;;;;;;;;;;;;-143.90;54.15;54702.22;3051303;19;19930;-64
2022/07/20 03:18:54;;;;;;;;;;;;;;;-143.90;54.19;54710.16;3051847;19;20504;-64
2022/07/20 03:19:55;;;;;;;;;;;;;;;-143.90;54.47;54686.31;3048347;19;20721;-64
2022/07/20 03:20:56;;;;;;;;;;;;;;;-143.90;54.77;54694.28;3047153;19;19926;-64
2022/07/20 03:21:56;;;;;;;;;;;;;;;-143.90;54.54;54714.13;3051312;19;19926;-64
2022/07/20 03:22:58;;;;;;;;;;;;;;;-143.90;54.79;54706.19;3048954;19;19923;-64
2022/07/20 03:23:58;;;;;;;;;;;;;;;-143.90;55.03;54694.28;3049132;19;19922;-63
2022/07/20 03:24:59;;;;;;;;;;;;;;;-143.90;55.14;54728.03;3050884;19;19922;-64
2022/07/20 03:26:00;;;;;;;;;;;;;;;-143.90;55.46;54686.31;3048310;19;19972;-64
2022/07/20 03:27:01;;;;;;;;;;;;;;;-143.90;55.62;54737.94;3051907;19;19986;-64
2022/07/20 03:28:02;;;;;;;;;;;;;;;-143.90;55.75;54690.28;3048255;19;19918;-64
2022/07/20 03:29:03;;;;;;;;;;;;;;;-143.90;56.04;54698.25;3050503;19;21105;-64
2022/07/20 03:30:04;;;;;;;;;;;;;;;-143.90;55.90;54724.06;3047695;19;19925;-64
2022/07/20 03:31:05;;;;;;;;;;;;;;;-143.90;56.00;54722.06;3051591;19;19947;-64
2022/07/20 03:32:06;;;;;;;;;;;;;;;-143.90;55.99;54702.22;3049209;19;19922;-64
2022/07/20 03:33:06;;;;;;;;;;;;;;;-143.90;56.08;54698.25;3049807;19;19925;-64
2022/07/20 03:34:07;;;;;;;;;;;;;;;-143.90;55.95;54710.16;3049363;19;20931;-64
2022/07/20 03:35:08;;;;;;;;;;;;;;;-143.90;56.03;54755.81;3048771;19;19930;-64
2022/07/20 03:36:09;;;;;;;;;;;;;;;-143.90;56.13;54716.09;3051033;19;19915;-63
2022/07/20 03:37:10;;;;;;;;;;;;;;;-143.90;56.52;54714.13;3049245;19;20398;-64
2022/07/20 03:38:11;;;;;;;;;;;;;;;-143.90;56.50;54730.00;3049715;19;19939;-64
2022/07/20 03:39:12;;;;;;;;;;;;;;;-143.90;56.90;54704.19;3049929;19;19922;-63
2022/07/20 03:40:13;;;;;;;;;;;;;;;-143.90;56.87;54690.28;3050856;19;20302;-63
2022/07/20 03:41:13;;;;;;;;;;;;;;;-143.90;56.90;54718.09;3050551;19;19915;-63
2022/07/20 03:42:14;;;;;;;;;;;;;;;-143.90;57.12;54718.09;3050647;19;20019;-63
2022/07/20 03:43:15;;;;;;;;;;;;;;;-143.90;57.16;54710.16;3046061;19;19930;-63
2022/07/20 03:44:16;;;;;;;;;;;;;;;-143.90;57.00;54710.16;3052311;19;19957;-63
2022/07/20 03:45:17;;;;;;;;;;;;;;;-143.90;56.73;54714.13;3047848;19;19940;-63
2022/07/20 03:46:18;;;;;;;;;;;;;;;-143.90;56.89;54714.13;3049015;19;19919;-63
2022/07/20 03:47:18;;;;;;;;;;;;;;;-143.90;56.46;54702.22;3051335;19;19919;-63
2022/07/20 03:48:19;;;;;;;;;;;;;;;-143.90;56.83;54706.19;3048196;19;20297;-63
2022/07/20 03:49:20;;;;;;;;;;;;;;;-143.90;56.06;54714.13;3049130;19;19923;-63
2022/07/20 03:50:21;;;;;;;;;;;;;;;-143.90;56.28;54706.19;3049001;19;19922;-63
2022/07/20 03:51:22;;;;;;;;;;;;;;;-143.90;56.22;54690.28;3047617;19;19915;-63
2022/07/20 03:52:23;;;;;;;;;;;;;;;-143.90;55.74;54722.06;3051508;19;20315;-63
2022/07/20 03:53:23;;;;;;;;;;;;;;;-143.90;55.28;54724.06;3047001;19;19951;-64
2022/07/20 03:54:24;;;;;;;;;;;;;;;-143.90;55.57;54686.31;3048584;19;19911;-63
2022/07/20 03:55:25;;;;;;;;;;;;;;;-143.90;55.44;54646.63;3049048;19;19934;-64
2022/07/20 03:56:26;;;;;;;;;;;;;;;-143.90;55.04;54724.06;3046276;19;19970;-64
2022/07/20 03:57:27;;;;;;;;;;;;;;;-143.90;55.07;54749.88;3051229;19;19937;-63
2022/07/20 03:58:28;;;;;;;;;;;;;;;-143.90;55.29;54708.16;3048694;19;19930;-63
2022/07/20 03:59:28;;;;;;;;;;;;;;;-143.90;55.12;54704.19;3047840;19;20275;-64
2022/07/20 04:00:30;;;;;;;;;;;;;;;-143.90;55.12;54718.09;3050940;19;19926;-63
2022/07/20 04:01:31;;;;;;;;;;;;;;;-143.90;54.89;54714.13;3047981;19;19986;-64
2022/07/20 04:02:32;;;;;;;;;;;;;;;-143.90;54.90;54726.03;3047725;19;19953;-63
2022/07/20 04:03:33;;;;;;;;;;;;;;;-143.90;54.78;54698.25;3050442;19;20564;-63
2022/07/20 04:04:33;;;;;;;;;;;;;;;-143.90;54.56;54682.34;3047792;19;19926;-63
2022/07/20 04:05:34;;;;;;;;;;;;;;;-143.90;54.63;54730.00;3051771;19;19919;-62
2022/07/20 04:06:35;;;;;;;;;;;;;;;-143.90;54.44;54747.88;3048524;19;20293;-63
2022/07/20 04:07:36;;;;;;;;;;;;;;;-143.90;54.61;54733.97;3049699;19;19965;-65
2022/07/20 04:08:37;;;;;;;;;;;;;;;-143.90;54.73;54726.03;3050101;19;19955;-62
2022/07/20 04:09:44;;;;;;;;;;;;;;;-143.90;54.39;54678.38;3046708;19;19922;-63
2022/07/20 04:10:44;;;;;;;;;;;;;;;-143.90;54.69;54710.16;3047379;19;20487;-63
2022/07/20 04:11:45;;;;;;;;;;;;;;;-143.90;54.94;54694.28;3049193;19;19929;-63
2022/07/20 04:12:46;;;;;;;;;;;;;;;-143.90;54.87;54726.03;3048509;19;20022;-63
2022/07/20 04:13:47;;;;;;;;;;;;;;;-143.90;54.92;54749.88;3051360;19;19933;-64
2022/07/20 04:14:49;;;;;;;;;;;;;;;-143.90;55.17;54698.25;3048732;19;19922;-63
2022/07/20 04:15:50;;;;;;;;;;;;;;;-143.90;55.22;54690.28;3045354;19;19926;-63
2022/07/20 04:16:51;;;;;;;;;;;;;;;-143.90;55.29;54698.25;3050360;19;20107;-62
2022/07/20 04:17:52;;;;;;;;;;;;;;;-143.90;55.40;54728.03;3047492;19;19923;-63
2022/07/20 04:18:53;;;;;;;;;;;;;;;-143.90;54.92;54694.28;3047419;19;19910;-63
2022/07/20 04:19:54;;;;;;;;;;;;;;;-143.90;54.71;54690.28;3049895;19;19919;-63
2022/07/20 04:20:55;;;;;;;;;;;;;;;-143.90;54.80;54694.28;3044928;19;20272;-64
2022/07/20 04:21:56;;;;;;;;;;;;;;;-143.90;54.81;54706.19;3047424;19;19930;-63
2022/07/20 04:22:57;;;;;;;;;;;;;;;-143.90;54.75;54706.19;3049233;19;20031;-64
2022/07/20 04:23:58;;;;;;;;;;;;;;;-143.90;54.89;54682.34;3048855;19;20338;-64
2022/07/20 04:24:59;;;;;;;;;;;;;;;-143.90;54.99;54706.19;3050376;19;19911;-64
2022/07/20 04:25:59;;;;;;;;;;;;;;;-143.90;54.82;54694.28;3049416;19;20018;-64
2022/07/20 04:27:00;;;;;;;;;;;;;;;-143.90;55.04;54698.25;3048795;19;19922;-64
2022/07/20 04:28:01;;;;;;;;;;;;;;;-143.90;54.97;54710.16;3050461;19;19918;-64
2022/07/20 04:29:02;;;;;;;;;;;;;;;-143.90;55.50;54710.16;3050156;19;19926;-64
2022/07/20 04:30:03;;;;;;;;;;;;;;;-143.90;55.00;54706.19;3048588;19;19975;-64
2022/07/20 04:31:04;;;;;;;;;;;;;;;-143.90;54.88;54694.28;3051021;19;20325;-64
2022/07/20 04:32:05;;;;;;;;;;;;;;;-143.90;55.44;54728.03;3048503;19;19918;-63
2022/07/20 04:33:06;;;;;;;;;;;;;;;-143.90;55.25;54694.28;3050618;19;20030;-63
2022/07/20 04:34:06;;;;;;;;;;;;;;;-143.90;55.12;54718.09;3050158;19;19949;-63
2022/07/20 04:35:08;;;;;;;;;;;;;;;-143.90;54.75;54682.34;3048739;19;19922;-63
2022/07/20 04:36:09;;;;;;;;;;;;;;;-143.90;54.24;54690.28;3051223;19;19922;-63
2022/07/20 04:37:10;;;;;;;;;;;;;;;-143.90;53.99;54674.41;3047041;19;20303;-62
2022/07/20 04:38:15;;;;;;;;;;;;;;;-143.90;53.37;54674.41;3046262;19;20010;-63
2022/07/20 04:39:16;;;;;;;;;;;;;;;-143.90;52.81;54682.34;3051151;19;19919;-63
2022/07/20 04:40:16;;;;;;;;;;;;;;;-143.90;52.18;54684.34;3049045;19;19933;-63
2022/07/20 04:41:17;;;;;;;;;;;;;;;-143.90;51.75;54664.50;3049852;19;19919;-63
2022/07/20 04:42:18;;;;;;;;;;;;;;;-143.90;51.20;54678.38;3050233;19;20384;-63
2022/07/20 04:43:19;;;;;;;;;;;;;;;-143.90;51.28;54670.44;3048911;19;19929;-62
2022/07/20 04:44:20;;;;;;;;;;;;;;;-143.90;51.13;54654.56;3051681;19;19999;-63
2022/07/20 04:45:21;;;;;;;;;;;;;;;-143.90;50.79;54694.28;3047061;19;19932;-62
2022/07/20 04:46:23;;;;;;;;;;;;;;;-143.90;50.29;54650.59;3047708;19;19930;-63
2022/07/20 04:47:23;;;;;;;;;;;;;;;-143.90;49.63;54662.50;3052058;19;20009;-64
2022/07/20 04:48:24;;;;;;;;;;;;;;;-143.90;49.29;54620.81;3045190;19;19922;-64
2022/07/20 04:49:25;;;;;;;;;;;;;;;-143.90;48.83;54646.63;3047762;19;19919;-63
2022/07/20 04:50:26;;;;;;;;;;;;;;;-143.90;48.38;54690.28;3050209;19;20039;-64
2022/07/20 04:51:27;;;;;;;;;;;;;;;-143.90;48.04;54650.59;3046401;19;19932;-63
2022/07/20 04:52:28;;;;;;;;;;;;;;;-143.90;47.59;54622.78;3050046;19;19933;-63
2022/07/20 04:53:29;;;;;;;;;;;;;;;-143.90;47.10;54650.59;3045570;19;19951;-64
2022/07/20 04:54:29;;;;;;;;;;;;;;;-143.90;46.69;54642.66;3047585;19;19918;-64
2022/07/20 04:55:30;;;;;;;;;;;;;;;-143.90;45.79;54622.78;3049221;19;19927;-64
2022/07/20 04:56:31;;;;;;;;;;;;;;;-143.90;45.56;54652.56;3047385;19;19928;-63
2022/07/20 04:57:32;;;;;;;;;;;;;;;-143.90;45.38;54642.66;3050667;19;20278;-63
2022/07/20 04:58:33;;;;;;;;;;;;;;;-143.90;45.12;54654.56;3047741;19;19923;-63
2022/07/20 04:59:34;;;;;;;;;;;;;;;-143.90;45.41;54622.78;3048126;19;19922;-64
2022/07/20 05:00:34;;;;;;;;;;;;;;;-143.90;45.01;54602.94;3051085;19;20869;-64
2022/07/20 05:01:35;;;;;;;;;;;;;;;-143.90;44.77;54674.41;3048106;19;19930;-63
2022/07/20 05:02:36;;;;;;;;;;;;;;;-143.90;44.56;54624.78;3048513;19;19926;-64
2022/07/20 05:03:37;;;;;;;;;;;;;;;-143.90;44.58;54618.81;3048084;19;20484;-64
2022/07/20 05:04:38;;;;;;;;;;;;;;;-143.90;44.16;54630.75;3047048;19;19919;-64
2022/07/20 05:05:38;;;;;;;;;;;;;;;-143.90;43.94;54630.75;3049725;19;19919;-64
2022/07/20 05:06:39;;;;;;;;;;;;;;;-143.90;43.77;54606.91;3047535;19;19978;-64
2022/07/20 05:07:40;;;;;;;;;;;;;;;-143.90;43.69;54648.59;3048772;19;19910;-64
2022/07/20 05:08:41;;;;;;;;;;;;;;;-143.90;43.36;54644.63;3050582;19;20388;-64
2022/07/20 05:09:42;;;;;;;;;;;;;;;-143.90;43.31;54571.19;3045386;19;19918;-64
2022/07/20 05:10:43;;;;;;;;;;;;;;;-143.90;43.37;54583.09;3045898;19;20620;-64
2022/07/20 05:11:44;;;;;;;;;;;;;;;-143.90;43.25;54610.88;3048784;19;19955;-64
2022/07/20 05:12:44;;;;;;;;;;;;;;;-143.90;43.61;54642.66;3046875;19;19926;-64
2022/07/20 05:13:45;;;;;;;;;;;;;;;-143.90;43.49;54614.84;3050407;19;19918;-64